Time;durP1;ratioP1;P1;durP2;ratioP2;P2;SDS_P1;SDS_P2;PMS_P1;PMS_P2;Temp;Humidity;BMP_temperature;BMP_pressure;BME280_temperature;BME280_humidity;BME280_pressure;Samples;Min_cycle;Max_cycle;Signal;HPM_P1;HPM_P2
2022/04/03 00:01:42;;;;;;;4.32;3.92;;;;;;;;;;5075846;28;20099;-60
2022/04/03 00:04:07;;;;;;;5.22;4.68;;;;;;;;;;5078104;28;20043;-60
2022/04/03 00:06:33;;;;;;;4.05;3.67;;;;;;;;;;5070548;28;20116;-59
2022/04/03 00:08:58;;;;;;;3.83;3.53;;;;;;;;;;5078565;28;20036;-60
2022/04/03 00:11:25;;;;;;;4.45;3.97;;;;;;;;;;5073728;28;20063;-61
2022/04/03 00:13:50;;;;;;;3.55;3.25;;;;;;;;;;5076542;28;20047;-59
2022/04/03 00:16:16;;;;;;;4.40;4.00;;;;;;;;;;5073749;28;20024;-59
2022/04/03 00:18:41;;;;;;;3.58;3.28;;;;;;;;;;5075447;28;20064;-59
2022/04/03 00:21:08;;;;;;;9.15;4.30;;;;;;;;;;5072564;28;20115;-59
2022/04/03 00:23:33;;;;;;;4.22;3.72;;;;;;;;;;5077104;28;20494;-58
2022/04/03 00:25:58;;;;;;;3.58;3.28;;;;;;;;;;5076356;28;20032;-53
2022/04/03 00:28:26;;;;;;;3.58;3.20;;;;;;;;;;5076178;28;20498;-54
2022/04/03 00:30:51;;;;;;;6.72;3.78;;;;;;;;;;5079192;28;20536;-53
2022/04/03 00:33:17;;;;;;;4.00;3.60;;;;;;;;;;5076155;28;20037;-52
2022/04/03 00:35:42;;;;;;;5.10;3.95;;;;;;;;;;5075292;28;20039;-53
2022/04/03 00:38:08;;;;;;;3.78;3.47;;;;;;;;;;5079237;28;20469;-53
2022/04/03 00:40:33;;;;;;;3.83;3.20;;;;;;;;;;5075641;28;20139;-54
2022/04/03 00:42:59;;;;;;;3.20;2.90;;;;;;;;;;5076808;28;20036;-54
2022/04/03 00:45:25;;;;;;;3.65;3.35;;;;;;;;;;5075725;28;20028;-51
2022/04/03 00:47:52;;;;;;;4.00;3.65;;;;;;;;;;5078256;28;20040;-54
2022/04/03 00:50:18;;;;;;;3.35;3.05;;;;;;;;;;5074572;28;20364;-53
2022/04/03 00:52:44;;;;;;;3.58;3.28;;;;;;;;;;5079997;28;20033;-53
2022/04/03 00:55:10;;;;;;;3.55;3.20;;;;;;;;;;5071879;28;20071;-54
2022/04/03 00:57:36;;;;;;;3.25;2.95;;;;;;;;;;5075248;28;20034;-53
2022/04/03 01:00:02;;;;;;;4.78;4.35;;;;;;;;;;5078692;28;20032;-51
2022/04/03 01:02:28;;;;;;;6.28;4.20;;;;;;;;;;5073045;28;20051;-53
2022/04/03 01:04:53;;;;;;;3.45;3.15;;;;;;;;;;5073438;28;20557;-54
2022/04/03 01:07:20;;;;;;;3.63;3.25;;;;;;;;;;5075201;28;20029;-51
2022/04/03 01:09:45;;;;;;;3.92;3.60;;;;;;;;;;5077153;28;20021;-54
2022/04/03 01:12:10;;;;;;;3.50;3.20;;;;;;;;;;5077160;28;20051;-55
2022/04/03 01:14:38;;;;;;;3.92;3.63;;;;;;;;;;5077204;28;20111;-53
2022/04/03 01:17:06;;;;;;;4.30;3.90;;;;;;;;;;5076475;28;20036;-54
2022/04/03 01:19:32;;;;;;;3.60;3.30;;;;;;;;;;5075912;28;20047;-51
2022/04/03 01:21:58;;;;;;;3.63;3.33;;;;;;;;;;5073966;28;20355;-51
2022/04/03 01:24:25;;;;;;;3.38;3.08;;;;;;;;;;5078499;28;20111;-52
2022/04/03 01:26:51;;;;;;;4.32;3.92;;;;;;;;;;5073896;28;20051;-53
2022/04/03 01:29:17;;;;;;;3.40;3.10;;;;;;;;;;5077511;28;20047;-50
2022/04/03 01:31:44;;;;;;;4.05;3.65;;;;;;;;;;5074221;28;20040;-51
2022/04/03 01:34:09;;;;;;;3.40;3.10;;;;;;;;;;5071838;28;20036;-52
2022/04/03 01:36:35;;;;;;;3.63;3.33;;;;;;;;;;5076129;28;20500;-53
2022/04/03 01:39:01;;;;;;;4.97;4.50;;;;;;;;;;5073421;28;20036;-51
2022/04/03 01:41:26;;;;;;;3.70;3.38;;;;;;;;;;5075704;28;20146;-53
2022/04/03 01:43:52;;;;;;;4.10;3.70;;;;;;;;;;5080984;28;20369;-51
2022/04/03 01:46:18;;;;;;;3.63;3.33;;;;;;;;;;5077152;28;20036;-52
2022/04/03 01:48:43;;;;;;;4.25;3.85;;;;;;;;;;5081290;28;20059;-51
2022/04/03 01:51:08;;;;;;;3.95;3.60;;;;;;;;;;5079040;28;20055;-51
2022/04/03 01:53:34;;;;;;;3.95;3.58;;;;;;;;;;5078068;28;20040;-54
2022/04/03 01:56:01;;;;;;;5.55;5.05;;;;;;;;;;5078280;28;20536;-55
2022/04/03 01:58:27;;;;;;;3.50;3.20;;;;;;;;;;5080823;28;20047;-53
2022/04/03 02:00:52;;;;;;;3.70;3.40;;;;;;;;;;5081677;28;20032;-50
2022/04/03 02:03:17;;;;;;;5.43;4.93;;;;;;;;;;5076856;28;20040;-55
2022/04/03 02:05:43;;;;;;;4.93;4.18;;;;;;;;;;5075784;28;20058;-50
2022/04/03 02:08:09;;;;;;;4.68;4.22;;;;;;;;;;5075250;28;20407;-53
2022/04/03 02:10:34;;;;;;;3.83;3.47;;;;;;;;;;5075747;28;20501;-52
2022/04/03 02:12:59;;;;;;;4.40;4.00;;;;;;;;;;5076151;28;20035;-55
2022/04/03 02:15:25;;;;;;;3.10;2.80;;;;;;;;;;5078080;28;20033;-54
2022/04/03 02:17:50;;;;;;;3.63;3.33;;;;;;;;;;5074476;28;20470;-51
2022/04/03 02:20:16;;;;;;;4.55;3.78;;;;;;;;;;5080098;28;22105;-54
2022/04/03 02:22:42;;;;;;;3.55;3.25;;;;;;;;;;5077540;28;20024;-55
2022/04/03 02:25:09;;;;;;;4.18;3.83;;;;;;;;;;5075988;28;20051;-54
2022/04/03 02:27:36;;;;;;;4.32;3.92;;;;;;;;;;5081941;28;20524;-54
2022/04/03 02:30:04;;;;;;;3.60;3.30;;;;;;;;;;5074275;28;20045;-54
2022/04/03 02:32:29;;;;;;;3.65;3.35;;;;;;;;;;5072610;28;20029;-50
2022/04/03 02:34:54;;;;;;;3.83;3.53;;;;;;;;;;5079173;28;20097;-51
2022/04/03 02:37:20;;;;;;;4.50;4.10;;;;;;;;;;5076303;28;20046;-50
2022/04/03 02:39:45;;;;;;;3.50;3.20;;;;;;;;;;5077563;28;20116;-53
2022/04/03 02:42:12;;;;;;;3.85;3.55;;;;;;;;;;5078076;28;20527;-49
2022/04/03 02:44:37;;;;;;;3.97;3.58;;;;;;;;;;5060918;28;20029;-50
2022/04/03 02:47:03;;;;;;;4.10;3.67;;;;;;;;;;5073924;28;20101;-51
2022/04/03 02:49:29;;;;;;;4.30;3.90;;;;;;;;;;5075089;28;20056;-54
2022/04/03 02:51:54;;;;;;;3.97;3.67;;;;;;;;;;5079567;28;20031;-50
2022/04/03 02:54:19;;;;;;;4.45;4.05;;;;;;;;;;5075447;28;20364;-51
2022/04/03 02:56:45;;;;;;;3.55;3.25;;;;;;;;;;5074175;28;20058;-50
2022/04/03 02:59:10;;;;;;;4.18;3.78;;;;;;;;;;5076842;28;20040;-54
2022/04/03 03:01:35;;;;;;;4.88;4.15;;;;;;;;;;5078301;28;20047;-51
2022/04/03 03:04:00;;;;;;;4.28;3.67;;;;;;;;;;5075746;28;20104;-52
2022/04/03 03:06:26;;;;;;;3.97;3.63;;;;;;;;;;5076283;28;20051;-52
2022/04/03 03:08:51;;;;;;;4.22;3.88;;;;;;;;;;5074733;28;20055;-51
2022/04/03 03:11:16;;;;;;;3.85;3.47;;;;;;;;;;5078872;28;20083;-52
2022/04/03 03:13:42;;;;;;;3.67;3.38;;;;;;;;;;5077225;28;20060;-54
2022/04/03 03:16:07;;;;;;;4.43;3.72;;;;;;;;;;5073309;28;20043;-54
2022/04/03 03:18:33;;;;;;;6.78;3.80;;;;;;;;;;5077366;28;20025;-53
2022/04/03 03:20:58;;;;;;;3.90;3.60;;;;;;;;;;5078204;28;20097;-54
2022/04/03 03:23:24;;;;;;;4.20;3.80;;;;;;;;;;5076985;28;20047;-52
2022/04/03 03:25:50;;;;;;;4.28;3.88;;;;;;;;;;5075584;28;20073;-53
2022/04/03 03:28:15;;;;;;;4.32;3.92;;;;;;;;;;5078219;28;20039;-50
2022/04/03 03:30:40;;;;;;;3.88;3.58;;;;;;;;;;5078785;28;20434;-54
2022/04/03 03:33:06;;;;;;;4.05;3.67;;;;;;;;;;5075805;28;20039;-54
2022/04/03 03:35:33;;;;;;;4.30;3.90;;;;;;;;;;5074762;28;20036;-54
2022/04/03 03:37:59;;;;;;;4.07;3.75;;;;;;;;;;5076029;28;20032;-53
2022/04/03 03:40:24;;;;;;;4.53;4.07;;;;;;;;;;5075990;28;20711;-52
2022/04/03 03:42:50;;;;;;;4.50;4.10;;;;;;;;;;5074907;28;20039;-54
2022/04/03 03:45:15;;;;;;;3.95;3.65;;;;;;;;;;5075103;28;20053;-50
2022/04/03 03:47:44;;;;;;;4.03;3.65;;;;;;;;;;5074851;28;20469;-51
2022/04/03 03:50:10;;;;;;;4.60;4.20;;;;;;;;;;5071871;28;20641;-50
2022/04/03 03:52:35;;;;;;;3.65;3.35;;;;;;;;;;5078049;28;20043;-52
2022/04/03 03:55:01;;;;;;;3.63;3.33;;;;;;;;;;5074494;28;20108;-50
2022/04/03 03:57:26;;;;;;;3.83;3.53;;;;;;;;;;5073686;28;20060;-52
2022/04/03 03:59:52;;;;;;;3.55;3.25;;;;;;;;;;5074404;28;20422;-49
2022/04/03 04:02:18;;;;;;;16.58;4.00;;;;;;;;;;5072840;28;20350;-51
2022/04/03 04:04:44;;;;;;;4.57;4.18;;;;;;;;;;5074955;28;20043;-50
2022/04/03 04:07:09;;;;;;;3.67;3.38;;;;;;;;;;5074978;28;20452;-51
2022/04/03 04:09:34;;;;;;;4.32;3.92;;;;;;;;;;5076932;28;20024;-52
2022/04/03 04:12:00;;;;;;;4.65;4.22;;;;;;;;;;5074147;28;20025;-50
2022/04/03 04:14:25;;;;;;;4.13;3.83;;;;;;;;;;5076441;28;20335;-50
2022/04/03 04:16:50;;;;;;;3.95;3.65;;;;;;;;;;5076485;28;20555;-51
2022/04/03 04:19:16;;;;;;;4.00;3.60;;;;;;;;;;5074293;28;20520;-50
2022/04/03 04:21:42;;;;;;;4.65;4.25;;;;;;;;;;5075130;28;20110;-51
2022/04/03 04:24:07;;;;;;;4.03;3.72;;;;;;;;;;5076345;28;20040;-50
2022/04/03 04:26:32;;;;;;;4.35;3.95;;;;;;;;;;5075923;28;20035;-53
2022/04/03 04:28:58;;;;;;;4.05;3.65;;;;;;;;;;5076633;28;20024;-52
2022/04/03 04:31:23;;;;;;;4.45;4.05;;;;;;;;;;5074135;28;20291;-50
2022/04/03 04:33:49;;;;;;;4.63;4.22;;;;;;;;;;5075543;28;20028;-53
2022/04/03 04:36:14;;;;;;;4.03;3.63;;;;;;;;;;5077108;28;20067;-53
2022/04/03 04:38:39;;;;;;;3.83;3.53;;;;;;;;;;5076303;28;20047;-54
2022/04/03 04:41:05;;;;;;;5.43;4.22;;;;;;;;;;5074320;28;20056;-50
2022/04/03 04:43:30;;;;;;;4.00;3.70;;;;;;;;;;5075884;28;20054;-50
2022/04/03 04:45:55;;;;;;;3.80;3.47;;;;;;;;;;5071922;28;20032;-52
2022/04/03 04:48:21;;;;;;;3.50;3.20;;;;;;;;;;5073541;28;20028;-50
2022/04/03 04:50:46;;;;;;;4.28;3.88;;;;;;;;;;5073926;28;20086;-53
2022/04/03 04:53:12;;;;;;;3.78;3.47;;;;;;;;;;5072633;28;20028;-52
2022/04/03 04:55:37;;;;;;;3.95;3.65;;;;;;;;;;5077823;28;20039;-52
2022/04/03 04:58:02;;;;;;;4.45;4.05;;;;;;;;;;5074612;28;20024;-54
2022/04/03 05:00:30;;;;;;;4.18;3.80;;;;;;;;;;5074415;28;20028;-51
2022/04/03 05:02:56;;;;;;;4.22;3.67;;;;;;;;;;5070160;28;20037;-54
2022/04/03 05:05:22;;;;;;;3.95;3.65;;;;;;;;;;5070051;28;20043;-54
2022/04/03 05:07:51;;;;;;;4.28;3.88;;;;;;;;;;5076718;28;20024;-53
2022/04/03 05:10:17;;;;;;;3.75;3.45;;;;;;;;;;5073280;28;20044;-50
2022/04/03 05:12:43;;;;;;;3.88;3.47;;;;;;;;;;5070665;28;20036;-55
2022/04/03 05:15:11;;;;;;;4.45;4.05;;;;;;;;;;5080272;28;20041;-52
2022/04/03 05:17:38;;;;;;;4.10;3.70;;;;;;;;;;5077969;28;20094;-52
2022/04/03 05:20:03;;;;;;;3.65;3.35;;;;;;;;;;5080177;28;20032;-52
2022/04/03 05:22:29;;;;;;;4.60;4.13;;;;;;;;;;5074604;28;20040;-52
2022/04/03 05:24:55;;;;;;;13.73;4.07;;;;;;;;;;5077630;28;20465;-53
2022/04/03 05:27:21;;;;;;;4.35;3.97;;;;;;;;;;5078353;28;20043;-53
2022/04/03 05:29:47;;;;;;;3.80;3.50;;;;;;;;;;5079054;28;20036;-59
2022/04/03 05:32:13;;;;;;;4.03;3.72;;;;;;;;;;5071559;28;20174;-59
2022/04/03 05:34:39;;;;;;;4.60;4.20;;;;;;;;;;5068578;28;20036;-59
2022/04/03 05:37:05;;;;;;;4.35;3.95;;;;;;;;;;5069754;28;20032;-59
2022/04/03 05:39:31;;;;;;;4.60;4.13;;;;;;;;;;5072806;28;20045;-58
2022/04/03 05:41:56;;;;;;;4.43;4.03;;;;;;;;;;5070520;28;20032;-58
2022/04/03 05:44:22;;;;;;;4.32;3.92;;;;;;;;;;5069926;28;20024;-59
2022/04/03 05:46:49;;;;;;;4.97;4.57;;;;;;;;;;5074264;28;20032;-58
2022/04/03 05:49:15;;;;;;;3.95;3.65;;;;;;;;;;5071405;28;20039;-59
2022/04/03 05:51:40;;;;;;;3.97;3.58;;;;;;;;;;5073372;28;20036;-59
2022/04/03 05:54:06;;;;;;;4.22;3.90;;;;;;;;;;5068185;28;20131;-59
2022/04/03 05:56:31;;;;;;;5.00;4.50;;;;;;;;;;5070793;28;20039;-59
2022/04/03 05:58:57;;;;;;;4.00;3.70;;;;;;;;;;5072147;28;20041;-59
2022/04/03 06:01:24;;;;;;;4.18;3.75;;;;;;;;;;5071749;28;20085;-59
2022/04/03 06:03:50;;;;;;;4.15;3.75;;;;;;;;;;5072398;28;20023;-60
2022/04/03 06:06:16;;;;;;;4.38;3.90;;;;;;;;;;5069022;28;20040;-60
2022/04/03 06:08:42;;;;;;;5.55;4.05;;;;;;;;;;5065622;28;20036;-60
2022/04/03 06:11:07;;;;;;;3.72;3.42;;;;;;;;;;5066493;28;20077;-60
2022/04/03 06:13:33;;;;;;;3.58;3.28;;;;;;;;;;5066006;28;20040;-59
2022/04/03 06:15:58;;;;;;;4.00;3.70;;;;;;;;;;5066082;28;20028;-59
2022/04/03 06:18:23;;;;;;;3.45;3.15;;;;;;;;;;5066446;28;20043;-59
2022/04/03 06:20:49;;;;;;;3.20;2.90;;;;;;;;;;5069641;28;20664;-59
2022/04/03 06:23:16;;;;;;;4.25;3.85;;;;;;;;;;5067634;28;20031;-59
2022/04/03 06:25:43;;;;;;;3.60;3.30;;;;;;;;;;5068997;28;20037;-59
2022/04/03 06:28:08;;;;;;;3.75;3.45;;;;;;;;;;5072333;28;20040;-59
2022/04/03 06:30:34;;;;;;;3.70;3.40;;;;;;;;;;5069559;28;20044;-59
2022/04/03 06:32:59;;;;;;;4.50;4.07;;;;;;;;;;5075355;28;20036;-59
2022/04/03 06:35:25;;;;;;;3.60;3.30;;;;;;;;;;5078360;28;20028;-59
2022/04/03 06:37:51;;;;;;;4.13;3.83;;;;;;;;;;5072829;28;20059;-59
2022/04/03 06:40:17;;;;;;;4.13;3.70;;;;;;;;;;5056817;28;20098;-59
2022/04/03 06:42:42;;;;;;;3.88;3.45;;;;;;;;;;5063464;28;20056;-60
2022/04/03 06:45:08;;;;;;;3.45;3.15;;;;;;;;;;5075336;28;20089;-60
2022/04/03 06:47:35;;;;;;;3.92;3.55;;;;;;;;;;5079823;28;20129;-59
2022/04/03 06:50:00;;;;;;;5.55;3.78;;;;;;;;;;5079292;28;20039;-59
2022/04/03 06:52:26;;;;;;;3.75;3.45;;;;;;;;;;5079124;28;20028;-60
2022/04/03 06:54:52;;;;;;;3.70;3.40;;;;;;;;;;5078739;28;20036;-59
2022/04/03 06:57:18;;;;;;;4.20;3.90;;;;;;;;;;5077316;28;20067;-60
2022/04/03 06:59:44;;;;;;;5.43;5.00;;;;;;;;;;5075045;28;20029;-59
2022/04/03 07:02:10;;;;;;;4.03;3.72;;;;;;;;;;5078239;28;20127;-59
2022/04/03 07:04:36;;;;;;;5.22;4.82;;;;;;;;;;5075977;28;20111;-60
2022/04/03 07:07:02;;;;;;;4.75;4.35;;;;;;;;;;5074944;28;20036;-59
2022/04/03 07:09:27;;;;;;;4.80;4.40;;;;;;;;;;5073784;28;20025;-58
2022/04/03 07:11:53;;;;;;;4.88;4.47;;;;;;;;;;5073312;28;20025;-59
2022/04/03 07:14:18;;;;;;;4.88;4.47;;;;;;;;;;5070362;28;20057;-55
2022/04/03 07:16:43;;;;;;;4.68;4.28;;;;;;;;;;5067307;28;20031;-53
2022/04/03 07:19:10;;;;;;;6.18;5.68;;;;;;;;;;5069579;28;20139;-59
2022/04/03 07:21:36;;;;;;;6.78;6.28;;;;;;;;;;5072152;28;20085;-58
2022/04/03 07:24:04;;;;;;;5.57;5.18;;;;;;;;;;5074652;28;20122;-52
2022/04/03 07:26:30;;;;;;;5.38;4.97;;;;;;;;;;5077932;28;20124;-55
2022/04/03 07:28:55;;;;;;;6.20;5.10;;;;;;;;;;5077550;28;20134;-57
2022/04/03 07:31:21;;;;;;;5.68;5.28;;;;;;;;;;5077903;28;20051;-55
2022/04/03 07:33:46;;;;;;;5.75;5.35;;;;;;;;;;5079033;28;20035;-52
2022/04/03 07:36:12;;;;;;;5.90;5.50;;;;;;;;;;5075366;28;20035;-53
2022/04/03 07:38:37;;;;;;;5.75;5.35;;;;;;;;;;5076785;28;20113;-55
2022/04/03 07:41:02;;;;;;;5.72;5.32;;;;;;;;;;5074833;28;20047;-52
2022/04/03 07:43:28;;;;;;;6.20;5.70;;;;;;;;;;5074531;28;20154;-52
2022/04/03 07:45:53;;;;;;;5.57;5.07;;;;;;;;;;5075644;28;20831;-57
2022/04/03 07:48:22;;;;;;;6.35;5.85;;;;;;;;;;5073651;28;20101;-55
2022/04/03 07:50:47;;;;;;;5.60;5.15;;;;;;;;;;5074917;28;20044;-52
2022/04/03 07:53:12;;;;;;;5.65;5.25;;;;;;;;;;5076315;28;20025;-56
2022/04/03 07:55:38;;;;;;;4.97;4.57;;;;;;;;;;5075417;28;20051;-54
2022/04/03 07:58:05;;;;;;;5.78;5.38;;;;;;;;;;5070718;28;20024;-53
2022/04/03 08:00:30;;;;;;;5.35;4.95;;;;;;;;;;5068716;28;20042;-50
2022/04/03 08:02:56;;;;;;;5.55;5.15;;;;;;;;;;5070836;28;20028;-55
2022/04/03 08:05:21;;;;;;;5.70;5.20;;;;;;;;;;5075321;28;20040;-51
2022/04/03 08:07:48;;;;;;;4.85;4.45;;;;;;;;;;5072035;28;20086;-54
2022/04/03 08:10:15;;;;;;;4.90;4.50;;;;;;;;;;5068004;28;20040;-48
2022/04/03 08:12:42;;;;;;;4.97;4.57;;;;;;;;;;5068594;28;20170;-54
2022/04/03 08:15:10;;;;;;;4.38;4.05;;;;;;;;;;5057616;28;20051;-53
2022/04/03 08:17:38;;;;;;;5.72;5.32;;;;;;;;;;5066000;28;20043;-51
2022/04/03 08:20:04;;;;;;;5.20;4.80;;;;;;;;;;5071617;28;20039;-51
2022/04/03 08:22:30;;;;;;;4.63;4.22;;;;;;;;;;5066976;28;20036;-56
2022/04/03 08:24:55;;;;;;;4.78;4.38;;;;;;;;;;5070201;28;20024;-51
2022/04/03 08:27:21;;;;;;;4.45;4.10;;;;;;;;;;5068589;28;20058;-53
2022/04/03 08:29:46;;;;;;;4.55;4.15;;;;;;;;;;5069494;28;20039;-53
2022/04/03 08:32:13;;;;;;;4.80;4.40;;;;;;;;;;5067224;28;20074;-53
2022/04/03 08:34:39;;;;;;;5.32;4.93;;;;;;;;;;5064401;28;20040;-54
2022/04/03 08:37:04;;;;;;;5.53;5.13;;;;;;;;;;5066848;28;20046;-55
2022/04/03 08:39:30;;;;;;;4.97;4.57;;;;;;;;;;5074487;28;20033;-55
2022/04/03 08:41:58;;;;;;;5.85;5.45;;;;;;;;;;5071129;28;20036;-53
2022/04/03 08:44:24;;;;;;;6.32;5.82;;;;;;;;;;5069789;28;20073;-55
2022/04/03 08:46:50;;;;;;;5.13;4.72;;;;;;;;;;5068622;28;20056;-50
2022/04/03 08:49:19;;;;;;;5.50;5.10;;;;;;;;;;5070006;28;20032;-50
2022/04/03 08:51:46;;;;;;;4.97;4.57;;;;;;;;;;5068691;28;20630;-51
2022/04/03 08:54:14;;;;;;;5.72;5.25;;;;;;;;;;5068175;28;20430;-51
2022/04/03 08:56:42;;;;;;;5.05;4.65;;;;;;;;;;5071817;28;20032;-50
2022/04/03 08:59:08;;;;;;;5.03;4.63;;;;;;;;;;5072283;28;20068;-55
2022/04/03 09:01:34;;;;;;;7.75;7.25;;;;;;;;;;5066647;28;20044;-50
2022/04/03 09:03:59;;;;;;;7.85;7.35;;;;;;;;;;5068020;28;20033;-55
2022/04/03 09:06:25;;;;;;;6.32;5.90;;;;;;;;;;5064379;28;20081;-52
2022/04/03 09:08:50;;;;;;;6.90;6.43;;;;;;;;;;5071051;28;20044;-54
2022/04/03 09:11:16;;;;;;;8.30;7.78;;;;;;;;;;5074477;28;20098;-52
2022/04/03 09:13:43;;;;;;;6.40;6.00;;;;;;;;;;5079754;28;20039;-52
2022/04/03 09:16:09;;;;;;;9.35;8.73;;;;;;;;;;5074156;28;20128;-53
2022/04/03 09:18:44;;;;;;;6.55;6.10;;;;;;;;;;5072772;28;20032;-55
2022/04/03 09:21:24;;;;;;;11.70;11.00;;;;;;;;;;5062018;28;20317;-53
2022/04/03 09:24:05;;;;;;;10.43;9.73;;;;;;;;;;5075878;28;20058;-53
2022/04/03 09:26:31;;;;;;;10.85;10.15;;;;;;;;;;5076396;28;20031;-53
2022/04/03 09:29:14;;;;;;;8.63;8.10;;;;;;;;;;5075791;28;20029;-51
2022/04/03 09:31:41;;;;;;;9.68;9.07;;;;;;;;;;5072590;28;20055;-52
2022/04/03 09:34:12;;;;;;;9.88;9.27;;;;;;;;;;5074429;28;20043;-49
2022/04/03 09:36:39;;;;;;;7.72;7.13;;;;;;;;;;5074174;28;20459;-50
2022/04/03 09:39:16;;;;;;;7.03;6.53;;;;;;;;;;5069723;28;20055;-53
2022/04/03 09:42:09;;;;;;;9.10;8.50;;;;;;;;;;5072843;28;20047;-52
2022/04/03 09:44:35;;;;;;;10.35;9.75;;;;;;;;;;5072044;28;20056;-51
2022/04/03 09:47:20;;;;;;;11.25;10.55;;;;;;;;;;5070529;28;20032;-52
2022/04/03 09:50:06;;;;;;;10.25;9.48;;;;;;;;;;5071720;28;20029;-53
2022/04/03 09:52:51;;;;;;;8.55;8.00;;;;;;;;;;5072156;28;20040;-52
2022/04/03 09:55:24;;;;;;;10.80;10.10;;;;;;;;;;5073458;28;20029;-53
2022/04/03 09:58:12;;;;;;;12.07;11.27;;;;;;;;;;5076949;28;20036;-52
2022/04/03 10:00:41;;;;;;;6.88;6.40;;;;;;;;;;5074403;28;20399;-54
2022/04/03 10:03:10;;;;;;;9.85;9.25;;;;;;;;;;5076647;28;20389;-52
2022/04/03 10:05:36;;;;;;;10.60;10.00;;;;;;;;;;5078719;28;20020;-52
2022/04/03 10:08:03;;;;;;;10.60;10.00;;;;;;;;;;5057929;28;20382;-53
2022/04/03 10:10:29;;;;;;;11.43;10.73;;;;;;;;;;5070265;28;20489;-50
2022/04/03 10:12:56;;;;;;;12.70;11.70;;;;;;;;;;5074284;28;20078;-50
2022/04/03 10:15:23;;;;;;;8.95;8.35;;;;;;;;;;5073900;28;20036;-52
2022/04/03 10:17:48;;;;;;;11.80;11.10;;;;;;;;;;5069877;28;20366;-49
2022/04/03 10:20:16;;;;;;;11.50;10.80;;;;;;;;;;5076840;28;20064;-52
2022/04/03 10:22:46;;;;;;;9.45;8.85;;;;;;;;;;5071706;28;20033;-49
2022/04/03 10:25:22;;;;;;;9.20;8.55;;;;;;;;;;5068790;28;20461;-51
2022/04/03 10:27:50;;;;;;;10.15;9.52;;;;;;;;;;5072826;28;20029;-51
2022/04/03 10:30:17;;;;;;;12.60;11.85;;;;;;;;;;5076025;28;20025;-54
2022/04/03 10:32:59;;;;;;;11.85;11.15;;;;;;;;;;5070699;28;20107;-51
2022/04/03 10:35:25;;;;;;;12.35;11.65;;;;;;;;;;5075581;28;20032;-53
2022/04/03 10:38:03;;;;;;;11.80;11.10;;;;;;;;;;5073232;28;20063;-55
2022/04/03 10:40:33;;;;;;;11.65;10.93;;;;;;;;;;5075220;28;20028;-51
2022/04/03 10:43:02;;;;;;;13.48;12.40;;;;;;;;;;5071448;28;20043;-56
2022/04/03 10:45:34;;;;;;;12.55;11.77;;;;;;;;;;5075229;28;20057;-53
2022/04/03 10:48:21;;;;;;;12.40;11.60;;;;;;;;;;5072394;28;20028;-51
2022/04/03 10:50:57;;;;;;;12.30;11.40;;;;;;;;;;5075895;28;20032;-54
2022/04/03 10:53:31;;;;;;;11.32;10.63;;;;;;;;;;5075288;28;20434;-51
2022/04/03 10:55:59;;;;;;;13.25;12.45;;;;;;;;;;5073249;28;20178;-54
2022/04/03 10:58:47;;;;;;;11.82;11.13;;;;;;;;;;5074275;28;20036;-51
2022/04/03 11:01:27;;;;;;;12.73;11.93;;;;;;;;;;5074816;28;20028;-52
2022/04/03 11:03:54;;;;;;;12.30;11.48;;;;;;;;;;5076280;28;20056;-54
2022/04/03 11:06:25;;;;;;;13.02;12.23;;;;;;;;;;5070639;28;20032;-54
2022/04/03 11:08:57;;;;;;;11.65;10.95;;;;;;;;;;5077809;28;20535;-51
2022/04/03 11:11:49;;;;;;;10.35;9.75;;;;;;;;;;5076046;28;20872;-56
2022/04/03 11:14:52;;;;;;;6.72;6.22;;;;;;;;;;5075473;28;20094;-54
2022/04/03 11:17:19;;;;;;;8.85;8.23;;;;;;;;;;5074817;28;20028;-54
2022/04/03 11:19:47;;;;;;;9.70;9.10;;;;;;;;;;5076311;28;20089;-55
2022/04/03 11:22:15;;;;;;;6.03;5.63;;;;;;;;;;5076717;28;20153;-53
2022/04/03 11:24:40;;;;;;;7.97;7.47;;;;;;;;;;5077323;28;20031;-53
2022/04/03 11:27:07;;;;;;;9.10;8.50;;;;;;;;;;5074602;28;20028;-50
2022/04/03 11:29:34;;;;;;;6.43;6.03;;;;;;;;;;5073159;28;20352;-50
2022/04/03 11:32:03;;;;;;;7.03;6.53;;;;;;;;;;5073388;28;20047;-52
2022/04/03 11:34:33;;;;;;;5.55;5.15;;;;;;;;;;5076086;28;20063;-50
2022/04/03 11:37:01;;;;;;;6.85;6.35;;;;;;;;;;5076119;28;20093;-53
2022/04/03 11:39:35;;;;;;;6.00;5.60;;;;;;;;;;5077924;28;20024;-49
2022/04/03 11:42:06;;;;;;;5.55;5.15;;;;;;;;;;5075993;28;20040;-50
2022/04/03 11:44:32;;;;;;;;;;;;;;;;;;5077098;28;20117;-51
2022/04/03 11:46:57;;;;;;;7.20;6.70;;;;;;;;;;5074623;28;19960;-47
2022/04/03 11:49:29;;;;;;;8.60;8.02;;;;;;;;;;5071657;28;20036;-49
2022/04/03 11:51:57;;;;;;;6.97;6.47;;;;;;;;;;5071043;28;20117;-50
2022/04/03 11:54:25;;;;;;;6.45;5.95;;;;;;;;;;5070649;28;20135;-48
2022/04/03 11:56:57;;;;;;;7.13;6.63;;;;;;;;;;5068085;28;20137;-51
2022/04/03 11:59:23;;;;;;;10.63;7.60;;;;;;;;;;5068565;28;20028;-52
2022/04/03 12:01:51;;;;;;;9.23;8.63;;;;;;;;;;5068823;28;20473;-54
2022/04/03 12:04:17;;;;;;;7.60;7.10;;;;;;;;;;5070933;28;20040;-55
2022/04/03 12:06:47;;;;;;;7.60;7.00;;;;;;;;;;5071593;28;20037;-53
2022/04/03 12:09:15;;;;;;;8.15;7.65;;;;;;;;;;5076464;28;20039;-53
2022/04/03 12:11:42;;;;;;;10.43;9.73;;;;;;;;;;5070237;28;20044;-52
2022/04/03 12:14:09;;;;;;;7.03;6.45;;;;;;;;;;5072884;28;20067;-53
2022/04/03 12:16:39;;;;;;;6.25;5.85;;;;;;;;;;5069993;28;20085;-54
2022/04/03 12:19:06;;;;;;;6.80;6.30;;;;;;;;;;5076030;28;20056;-52
2022/04/03 12:21:43;;;;;;;5.60;5.20;;;;;;;;;;5075022;28;20059;-53
2022/04/03 12:24:14;;;;;;;5.22;4.82;;;;;;;;;;5071841;28;20509;-52
2022/04/03 12:27:01;;;;;;;6.10;5.70;;;;;;;;;;5075782;28;20095;-51
2022/04/03 12:29:29;;;;;;;8.75;6.10;;;;;;;;;;5065809;28;20456;-54
2022/04/03 12:32:00;;;;;;;6.13;5.63;;;;;;;;;;5073347;28;20119;-51
2022/04/03 12:34:27;;;;;;;6.55;6.05;;;;;;;;;;5076610;28;20374;-51
2022/04/03 12:36:54;;;;;;;10.10;9.50;;;;;;;;;;5075313;28;20090;-53
2022/04/03 12:39:46;;;;;;;7.60;7.10;;;;;;;;;;5071798;28;20454;-54
2022/04/03 12:42:26;;;;;;;;;;;;;;;;;;5092973;28;20705;-54
2022/04/03 12:45:01;;;;;;;7.07;6.57;;;;;;;;;;5072421;28;19917;-55
2022/04/03 12:47:29;;;;;;;5.90;5.40;;;;;;;;;;5072786;28;20074;-54
2022/04/03 12:50:10;;;;;;;7.32;6.82;;;;;;;;;;5072163;28;20097;-54
2022/04/03 12:52:47;;;;;;;6.55;6.05;;;;;;;;;;5073958;28;20343;-54
2022/04/03 12:55:22;;;;;;;7.75;7.20;;;;;;;;;;5074891;28;20063;-52
2022/04/03 13:01:11;;;;;;;6.00;5.60;;;;;;;;;;5074459;28;20040;-52
2022/04/03 13:03:47;;;;;;;6.75;6.25;;;;;;;;;;5071784;28;20097;-60
2022/04/03 13:06:23;;;;;;;5.88;5.47;;;;;;;;;;5076419;28;20089;-61
2022/04/03 13:09:02;;;;;;;6.40;5.75;;;;;;;;;;5076692;28;20028;-60
2022/04/03 13:11:32;;;;;;;5.55;5.15;;;;;;;;;;5072148;28;20165;-60
2022/04/03 13:14:17;;;;;;;5.10;4.70;;;;;;;;;;5075961;28;20060;-61
2022/04/03 13:16:44;;;;;;;6.05;5.55;;;;;;;;;;5073998;28;20511;-62
2022/04/03 13:19:10;;;;;;;5.95;5.55;;;;;;;;;;5074563;28;20040;-60
2022/04/03 13:21:37;;;;;;;5.40;4.97;;;;;;;;;;5073846;28;20082;-60
2022/04/03 13:24:04;;;;;;;4.90;4.50;;;;;;;;;;5071271;28;20052;-60
2022/04/03 13:26:29;;;;;;;5.40;5.00;;;;;;;;;;5072608;28;20243;-61
2022/04/03 13:28:55;;;;;;;5.95;5.55;;;;;;;;;;5071906;28;20052;-60
2022/04/03 13:31:20;;;;;;;5.53;5.13;;;;;;;;;;5072227;28;20588;-60
2022/04/03 13:33:45;;;;;;;6.57;6.07;;;;;;;;;;5075536;28;20032;-61
2022/04/03 13:36:11;;;;;;;6.00;5.60;;;;;;;;;;5079725;28;20102;-62
2022/04/03 13:38:36;;;;;;;7.13;6.63;;;;;;;;;;5079744;28;20024;-61
2022/04/03 13:41:02;;;;;;;7.78;7.18;;;;;;;;;;5076402;28;20033;-61
2022/04/03 13:43:27;;;;;;;5.32;4.93;;;;;;;;;;5080952;28;20382;-60
2022/04/03 13:46:01;;;;;;;5.90;5.50;;;;;;;;;;5080291;28;20032;-62
2022/04/03 13:48:35;;;;;;;6.15;5.75;;;;;;;;;;5079077;28;20034;-63
2022/04/03 13:51:02;;;;;;;5.65;5.15;;;;;;;;;;5071913;28;20028;-61
2022/04/03 13:53:28;;;;;;;5.78;5.38;;;;;;;;;;5070007;28;20062;-62
2022/04/03 13:55:54;;;;;;;6.00;5.60;;;;;;;;;;5069459;28;20040;-62
2022/04/03 13:58:21;;;;;;;5.82;5.35;;;;;;;;;;5067371;28;20024;-63
2022/04/03 14:00:47;;;;;;;4.93;4.53;;;;;;;;;;5067505;28;20115;-62
2022/04/03 14:03:13;;;;;;;6.03;5.43;;;;;;;;;;5068674;28;20039;-62
2022/04/03 14:05:38;;;;;;;5.30;4.80;;;;;;;;;;5069648;28;20032;-63
2022/04/03 14:08:04;;;;;;;6.50;6.07;;;;;;;;;;5071876;28;20040;-63
2022/04/03 14:10:31;;;;;;;8.20;7.68;;;;;;;;;;5071534;28;20028;-62
2022/04/03 14:12:57;;;;;;;5.45;5.05;;;;;;;;;;5070723;28;20133;-61
2022/04/03 14:15:23;;;;;;;5.22;4.82;;;;;;;;;;5072644;28;20100;-60
2022/04/03 14:17:48;;;;;;;5.30;4.90;;;;;;;;;;5071429;28;20553;-62
2022/04/03 14:20:14;;;;;;;4.68;4.28;;;;;;;;;;5072033;28;20029;-62
2022/04/03 14:22:39;;;;;;;5.72;5.32;;;;;;;;;;5071085;28;20039;-60
2022/04/03 14:25:07;;;;;;;5.68;5.28;;;;;;;;;;5066873;28;20051;-61
2022/04/03 14:27:32;;;;;;;4.95;4.55;;;;;;;;;;5070594;28;20055;-60
2022/04/03 14:29:58;;;;;;;5.70;5.30;;;;;;;;;;5071191;28;20028;-62
2022/04/03 14:32:24;;;;;;;7.75;5.68;;;;;;;;;;5068107;28;20111;-60
2022/04/03 14:34:50;;;;;;;5.25;4.85;;;;;;;;;;5069701;28;20133;-61
2022/04/03 14:37:15;;;;;;;4.68;4.28;;;;;;;;;;5071125;28;20088;-61
2022/04/03 14:39:42;;;;;;;4.75;4.35;;;;;;;;;;5071178;28;20529;-62
2022/04/03 14:42:07;;;;;;;6.05;5.57;;;;;;;;;;5068292;28;20158;-61
2022/04/03 14:44:32;;;;;;;5.05;4.55;;;;;;;;;;5069157;28;20136;-62
2022/04/03 14:47:02;;;;;;;5.57;4.63;;;;;;;;;;5072296;28;20441;-61